Time;durP1;ratioP1;P1;durP2;ratioP2;P2;SDS_P1;SDS_P2;PMS_P1;PMS_P2;Temp;Humidity;BMP_temperature;BMP_pressure;BME280_temperature;BME280_humidity;BME280_pressure;Samples;Min_cycle;Max_cycle;Signal;HPM_P1;HPM_P2
2022/05/03 00:01:23;;;;;;;25.77;13.98;;;9.90;99.90;;;;;;5070852;28;20048;-74
2022/05/03 00:03:55;;;;;;;28.58;14.95;;;9.80;99.90;;;;;;5057148;28;20040;-74
2022/05/03 00:06:30;;;;;;;26.45;16.05;;;9.70;99.90;;;;;;5059627;28;20048;-74
2022/05/03 00:09:05;;;;;;;22.52;14.95;;;9.70;99.90;;;;;;5059080;28;20040;-74
2022/05/03 00:11:36;;;;;;;25.52;15.60;;;9.60;99.90;;;;;;5042513;28;20060;-74
2022/05/03 00:14:10;;;;;;;25.05;14.82;;;9.60;99.90;;;;;;5054559;28;20061;-74
2022/05/03 00:16:38;;;;;;;25.23;14.23;;;9.60;99.90;;;;;;5067443;28;20460;-75
2022/05/03 00:19:07;;;;;;;25.55;14.75;;;9.70;99.90;;;;;;5056237;28;20052;-75
2022/05/03 00:21:36;;;;;;;24.63;14.95;;;9.80;99.90;;;;;;5059921;28;20041;-76
2022/05/03 00:24:06;;;;;;;29.20;16.02;;;9.80;99.90;;;;;;5053467;28;20132;-75
2022/05/03 00:26:35;;;;;;;29.95;15.18;;;9.90;99.90;;;;;;5054518;28;20056;-75
2022/05/03 00:29:04;;;;;;;30.27;16.25;;;9.80;99.90;;;;;;5053740;28;20136;-76
2022/05/03 00:31:32;;;;;;;31.33;16.50;;;9.70;99.90;;;;;;5053428;28;20511;-76
2022/05/03 00:34:00;;;;;;;26.63;14.82;;;9.80;99.90;;;;;;5053423;28;20052;-76
2022/05/03 00:36:28;;;;;;;25.42;12.98;;;9.70;99.90;;;;;;5053936;28;20437;-75
2022/05/03 00:38:55;;;;;;;23.38;13.13;;;9.70;99.90;;;;;;5035772;28;20055;-75
2022/05/03 00:41:34;;;;;;;21.48;12.68;;;9.70;99.90;;;;;;5035950;28;20090;-75
2022/05/03 00:44:55;;;;;;;25.60;12.95;;;9.60;99.90;;;;;;5053169;28;20045;-75
2022/05/03 00:46:58;;;;;;;23.48;13.35;;;9.60;99.90;;;;;;5053294;28;20071;-75
2022/05/03 00:49:37;;;;;;;19.08;11.45;;;9.60;99.90;;;;;;5035711;28;20060;-75
2022/05/03 00:52:11;;;;;;;19.05;11.48;;;9.60;99.90;;;;;;5035643;28;20053;-75
2022/05/03 00:54:48;;;;;;;20.95;11.60;;;9.60;99.90;;;;;;5053496;28;20049;-75
2022/05/03 00:57:36;;;;;;;17.10;10.05;;;9.50;99.90;;;;;;5053791;28;20080;-74
2022/05/03 01:00:10;;;;;;;14.40;8.93;;;9.50;99.90;;;;;;5057875;28;20048;-74
2022/05/03 01:03:18;;;;;;;17.67;10.27;;;9.50;99.90;;;;;;5033575;28;20072;-75
2022/05/03 01:05:51;;;;;;;19.45;11.30;;;9.50;99.90;;;;;;5034285;28;20117;-75
2022/05/03 01:08:30;;;;;;;18.83;12.50;;;9.50;99.90;;;;;;5054168;28;20388;-74
2022/05/03 01:11:19;;;;;;;19.17;13.25;;;9.50;99.90;;;;;;5036688;28;20100;-74
2022/05/03 01:14:08;;;;;;;24.75;13.77;;;9.50;99.90;;;;;;5053556;28;20045;-74
2022/05/03 01:16:41;;;;;;;18.45;12.13;;;9.50;99.90;;;;;;5031462;28;20053;-73
2022/05/03 01:19:34;;;;;;;25.58;12.20;;;9.40;99.90;;;;;;5014663;28;20052;-73
2022/05/03 01:22:28;;;;;;;20.15;12.27;;;9.40;99.90;;;;;;5047043;28;20552;-73
2022/05/03 01:25:11;;;;;;;22.02;12.18;;;9.30;99.90;;;;;;5050796;28;20073;-74
2022/05/03 01:27:53;;;;;;;21.65;10.23;;;9.30;99.90;;;;;;5033785;28;20062;-74
2022/05/03 01:30:22;;;;;;;14.98;9.25;;;9.20;99.90;;;;;;5031624;28;20064;-74
2022/05/03 01:32:52;;;;;;;12.38;9.05;;;9.10;99.90;;;;;;5030970;28;20049;-75
2022/05/03 01:35:22;;;;;;;15.63;9.38;;;9.20;99.90;;;;;;5014785;28;20551;-74
2022/05/03 01:38:07;;;;;;;16.35;9.65;;;9.20;99.90;;;;;;5048170;28;20040;-74
2022/05/03 01:40:53;;;;;;;18.80;10.50;;;9.30;99.90;;;;;;5052497;28;20084;-74
2022/05/03 01:43:33;;;;;;;19.33;10.85;;;9.20;99.90;;;;;;5051255;28;20030;-74
2022/05/03 01:46:08;;;;;;;21.48;11.82;;;9.20;99.90;;;;;;5050578;28;20076;-74
2022/05/03 01:51:46;;;;;;;20.17;10.98;;;9.20;99.90;;;;;;5031106;28;20179;-75
2022/05/03 01:54:37;;;;;;;19.10;10.88;;;9.20;99.90;;;;;;5043777;28;20115;-74
2022/05/03 01:57:13;;;;;;;21.80;10.13;;;9.30;99.90;;;;;;5038215;28;20048;-74
2022/05/03 01:59:56;;;;;;;19.08;10.00;;;9.20;99.90;;;;;;5056359;28;20519;-74
2022/05/03 02:02:34;;;;;;;16.83;9.95;;;9.10;99.90;;;;;;5038680;28;20110;-75
2022/05/03 02:05:06;;;;;;;15.55;10.00;;;9.10;99.90;;;;;;5055783;28;20052;-74
2022/05/03 02:07:52;;;;;;;19.27;9.55;;;9.10;99.90;;;;;;5038418;28;20048;-74
2022/05/03 02:10:32;;;;;;;19.35;9.82;;;9.20;99.90;;;;;;5056385;28;20041;-74
2022/05/03 02:13:06;;;;;;;16.90;9.75;;;9.10;99.90;;;;;;5055674;28;20073;-74
2022/05/03 02:15:39;;;;;;;19.08;10.05;;;9.20;99.90;;;;;;5056507;28;20063;-74
2022/05/03 02:18:18;;;;;;;14.73;9.43;;;9.10;99.90;;;;;;5055598;28;20041;-75
2022/05/03 02:21:10;;;;;;;14.95;8.98;;;9.10;99.90;;;;;;5038617;28;20052;-74
2022/05/03 02:23:48;;;;;;;12.50;8.05;;;9.10;99.90;;;;;;5055663;28;20132;-74
2022/05/03 02:26:28;;;;;;;15.20;9.13;;;9.10;99.90;;;;;;5038720;28;20048;-74
2022/05/03 02:28:58;;;;;;;14.98;9.15;;;9.10;99.90;;;;;;5055786;28;20539;-74
2022/05/03 02:31:37;;;;;;;16.40;10.50;;;9.10;99.90;;;;;;5038230;28;20514;-74
2022/05/03 02:34:31;;;;;;;19.58;11.07;;;9.10;99.90;;;;;;5037621;28;20099;-74
2022/05/03 02:37:06;;;;;;;14.60;9.77;;;9.10;99.90;;;;;;5049876;28;20056;-73
2022/05/03 02:39:39;;;;;;;20.60;11.25;;;9.10;99.90;;;;;;5037672;28;20037;-74
2022/05/03 02:42:09;;;;;;;16.98;10.40;;;9.00;99.90;;;;;;5055770;28;20045;-74
2022/05/03 02:44:39;;;;;;;17.38;10.57;;;9.00;99.90;;;;;;5051905;28;20488;-74
2022/05/03 02:47:10;;;;;;;16.30;9.85;;;9.00;99.90;;;;;;5055299;28;20132;-75
2022/05/03 02:49:58;;;;;;;16.05;8.73;;;9.00;99.90;;;;;;5055356;28;20041;-74
2022/05/03 02:52:32;;;;;;;14.95;9.13;;;9.00;99.90;;;;;;5038021;28;20056;-76
2022/05/03 02:55:06;;;;;;;15.95;9.32;;;9.00;99.90;;;;;;5037556;28;20056;-75
2022/05/03 02:57:46;;;;;;;16.13;8.88;;;9.00;99.90;;;;;;5034359;28;20042;-74
2022/05/03 03:03:12;;;;;;;15.38;8.95;;;8.80;99.90;;;;;;5035270;28;20033;-75
2022/05/03 03:05:44;;;;;;;14.07;8.27;;;8.80;99.90;;;;;;5035168;28;20064;-74
2022/05/03 03:08:12;;;;;;;13.07;9.05;;;8.80;99.90;;;;;;5036057;28;20100;-73
2022/05/03 03:10:50;;;;;;;12.07;8.57;;;8.80;99.90;;;;;;5044958;28;20037;-73
2022/05/03 03:13:25;;;;;;;12.18;8.10;;;8.90;99.90;;;;;;5059550;28;20056;-73
2022/05/03 03:15:54;;;;;;;13.57;7.60;;;8.80;99.90;;;;;;5064311;28;20109;-74
2022/05/03 03:18:24;;;;;;;11.15;7.03;;;8.80;99.90;;;;;;5076785;28;20041;-75
2022/05/03 03:20:58;;;;;;;14.43;7.00;;;8.80;99.90;;;;;;5058981;28;20037;-74
2022/05/03 03:23:28;;;;;;;9.73;6.32;;;8.80;99.90;;;;;;5042940;28;20159;-74
2022/05/03 03:25:55;;;;;;;11.68;6.97;;;8.80;99.90;;;;;;5054516;28;20041;-73
2022/05/03 03:28:24;;;;;;;10.70;7.15;;;8.80;99.90;;;;;;5055218;28;20055;-74
2022/05/03 03:30:53;;;;;;;12.88;8.35;;;8.80;99.90;;;;;;5041926;28;20488;-74
2022/05/03 03:33:22;;;;;;;14.55;8.75;;;8.80;99.90;;;;;;5054305;28;20452;-75
2022/05/03 03:35:50;;;;;;;13.63;9.98;;;8.70;99.90;;;;;;5054294;28;20044;-74
2022/05/03 03:38:27;;;;;;;19.08;11.32;;;8.70;99.90;;;;;;5054488;28;20412;-74
2022/05/03 03:40:56;;;;;;;20.65;11.25;;;8.60;99.90;;;;;;5036472;28;20459;-74
2022/05/03 03:43:23;;;;;;;19.17;10.80;;;8.50;99.90;;;;;;5056071;28;20037;-74
2022/05/03 03:45:51;;;;;;;18.67;11.38;;;8.50;99.90;;;;;;5056598;28;20423;-74
2022/05/03 03:48:18;;;;;;;16.98;12.25;;;8.40;99.90;;;;;;5054775;28;20041;-74
2022/05/03 03:50:46;;;;;;;18.15;11.80;;;8.40;99.90;;;;;;5053689;28;20048;-73
2022/05/03 03:53:15;;;;;;;16.98;11.00;;;8.50;99.90;;;;;;5053403;28;20040;-73
2022/05/03 03:55:46;;;;;;;19.02;11.93;;;8.60;99.90;;;;;;5043897;28;20045;-73
2022/05/03 03:58:14;;;;;;;17.08;11.15;;;8.60;99.90;;;;;;5053990;28;20082;-73
2022/05/03 04:00:42;;;;;;;16.30;10.00;;;8.60;99.90;;;;;;5074131;28;20045;-73
2022/05/03 04:03:10;;;;;;;19.73;10.85;;;8.70;99.90;;;;;;5068862;28;20415;-72
2022/05/03 04:05:39;;;;;;;17.20;12.00;;;8.70;99.90;;;;;;5076632;28;20105;-73
2022/05/03 04:08:07;;;;;;;18.42;12.35;;;8.70;99.90;;;;;;5061140;28;20037;-72
2022/05/03 04:10:35;;;;;;;19.15;12.27;;;8.80;99.90;;;;;;5054244;28;20380;-72
2022/05/03 04:13:04;;;;;;;15.63;10.10;;;8.80;99.90;;;;;;5057300;28;20076;-73
2022/05/03 04:15:33;;;;;;;14.57;8.73;;;8.90;99.90;;;;;;5054567;28;20061;-73
2022/05/03 04:18:06;;;;;;;17.55;8.88;;;8.90;99.90;;;;;;5035459;28;20045;-72
2022/05/03 04:20:34;;;;;;;15.88;9.95;;;8.90;99.90;;;;;;5053370;28;20067;-73
2022/05/03 04:23:02;;;;;;;16.63;9.95;;;9.00;99.90;;;;;;5054628;28;20045;-73
2022/05/03 04:25:29;;;;;;;14.95;9.77;;;9.00;99.90;;;;;;5035992;28;20052;-73
2022/05/03 04:27:57;;;;;;;19.20;10.43;;;9.00;99.90;;;;;;5054031;28;20037;-73
2022/05/03 04:30:26;;;;;;;17.25;8.57;;;9.10;99.90;;;;;;5035651;28;20045;-72
2022/05/03 04:32:53;;;;;;;17.75;9.40;;;9.20;99.90;;;;;;5053681;28;20052;-73
2022/05/03 04:35:20;;;;;;;18.02;10.00;;;9.20;99.90;;;;;;5053803;28;20060;-72
2022/05/03 04:37:48;;;;;;;15.85;9.15;;;9.30;99.90;;;;;;5037172;28;20051;-72
2022/05/03 04:40:15;;;;;;;16.08;8.82;;;9.30;99.90;;;;;;5056151;28;20052;-72
2022/05/03 04:42:43;;;;;;;17.77;8.20;;;9.40;99.90;;;;;;5053714;28;20091;-72
2022/05/03 04:45:11;;;;;;;16.88;8.35;;;9.50;99.90;;;;;;5054559;28;20053;-72
2022/05/03 04:47:40;;;;;;;14.48;8.07;;;9.50;99.90;;;;;;5054155;28;20049;-72
2022/05/03 04:50:11;;;;;;;13.00;8.25;;;9.50;99.90;;;;;;5055313;28;20048;-72
2022/05/03 04:52:39;;;;;;;15.80;8.55;;;9.50;99.90;;;;;;5053667;28;20048;-73
2022/05/03 04:55:08;;;;;;;15.13;7.80;;;9.70;99.90;;;;;;5054271;28;20515;-73
2022/05/03 04:57:36;;;;;;;13.82;7.90;;;9.80;99.90;;;;;;5054043;28;20037;-73
2022/05/03 05:00:04;;;;;;;14.73;8.48;;;9.90;99.90;;;;;;5036018;28;20084;-73
2022/05/03 05:02:32;;;;;;;14.77;8.80;;;10.00;99.90;;;;;;5054572;28;20049;-73
2022/05/03 05:05:01;;;;;;;14.90;9.52;;;10.00;99.90;;;;;;5056661;28;20072;-72
2022/05/03 05:07:28;;;;;;;17.33;10.35;;;10.10;99.90;;;;;;5055106;28;20071;-72
2022/05/03 05:12:41;;;;;;;41.45;23.40;;;10.40;99.90;;;;;;5066952;23;20391;-73
2022/05/03 05:15:09;;;;;;;28.27;17.15;;;10.50;99.90;;;;;;5066809;28;20105;-73
2022/05/03 05:17:36;;;;;;;18.42;10.85;;;10.60;99.90;;;;;;5058438;28;20052;-72
2022/05/03 05:20:07;;;;;;;15.57;10.30;;;10.70;99.90;;;;;;5056979;28;20051;-72
2022/05/03 05:22:34;;;;;;;18.50;9.63;;;10.80;99.90;;;;;;5080014;28;20279;-73
2022/05/03 05:25:02;;;;;;;17.35;10.23;;;10.90;99.90;;;;;;5074113;28;20052;-75
2022/05/03 05:27:30;;;;;;;17.80;10.02;;;11.00;99.90;;;;;;5091502;28;20041;-73
2022/05/03 05:29:58;;;;;;;18.63;11.05;;;11.10;99.90;;;;;;5076649;28;20056;-73
2022/05/03 05:32:25;;;;;;;15.85;9.88;;;11.20;99.90;;;;;;5085367;28;20064;-74
2022/05/03 05:34:54;;;;;;;16.23;10.48;;;11.30;99.90;;;;;;5081820;28;20044;-72
2022/05/03 05:37:22;;;;;;;18.02;11.27;;;11.40;99.90;;;;;;5064297;28;20499;-73
2022/05/03 05:39:50;;;;;;;15.75;10.25;;;11.60;99.90;;;;;;5093166;28;20044;-73
2022/05/03 05:42:18;;;;;;;16.52;10.35;;;11.70;99.90;;;;;;5061535;28;20056;-74
2022/05/03 05:44:46;;;;;;;15.85;10.13;;;11.80;99.90;;;;;;5082083;28;20506;-73
2022/05/03 05:47:13;;;;;;;18.35;11.00;;;12.00;99.90;;;;;;5098422;28;20447;-73
2022/05/03 05:49:41;;;;;;;18.20;12.75;;;12.00;99.90;;;;;;5080744;28;20040;-73
2022/05/03 05:54:55;;;;;;;19.90;11.23;;;12.40;99.90;;;;;;5068036;28;20144;-73
2022/05/03 05:57:22;;;;;;;20.23;10.98;;;12.70;99.90;;;;;;5077754;28;20044;-73
2022/05/03 05:59:50;;;;;;;20.75;11.93;;;13.00;99.90;;;;;;5078065;28;20544;-73
2022/05/03 06:02:17;;;;;;;20.48;12.73;;;13.30;99.90;;;;;;5061397;28;20048;-74
2022/05/03 06:04:45;;;;;;;20.08;11.20;;;13.40;99.90;;;;;;5089736;28;20041;-74
2022/05/03 06:07:12;;;;;;;18.58;10.23;;;13.80;99.90;;;;;;5072412;28;20044;-74
2022/05/03 06:09:40;;;;;;;17.63;9.80;;;14.00;99.90;;;;;;5097897;28;20046;-73
2022/05/03 06:12:10;;;;;;;15.32;10.80;;;14.00;99.90;;;;;;5082740;28;20044;-74
2022/05/03 06:14:38;;;;;;;23.67;12.75;;;14.40;99.90;;;;;;5080307;28;20045;-74
2022/05/03 06:17:05;;;;;;;27.90;18.15;;;14.80;99.90;;;;;;5066929;28;20048;-73
2022/05/03 06:19:33;;;;;;;27.23;18.42;;;15.10;99.90;;;;;;5099441;28;20052;-73
2022/05/03 06:22:00;;;;;;;32.38;19.45;;;15.60;99.90;;;;;;5079392;28;20050;-73
2022/05/03 06:24:28;;;;;;;41.05;24.58;;;15.60;99.90;;;;;;5079743;28;20059;-74
2022/05/03 06:26:56;;;;;;;29.00;19.20;;;15.90;99.90;;;;;;5097534;28;20118;-72
2022/05/03 06:29:25;;;;;;;34.30;22.25;;;16.30;99.90;;;;;;5091374;28;20544;-73
2022/05/03 06:31:53;;;;;;;36.83;23.90;;;16.70;99.90;;;;;;5078990;28;20049;-73
2022/05/03 06:34:20;;;;;;;31.00;19.98;;;17.10;99.90;;;;;;5076920;28;20121;-73
2022/05/03 06:36:49;;;;;;;24.95;17.63;;;17.20;99.90;;;;;;5081184;28;20094;-74
2022/05/03 06:39:16;;;;;;;27.02;17.10;;;17.20;99.90;;;;;;5062627;28;20515;-73
2022/05/03 06:41:44;;;;;;;29.10;18.52;;;17.30;99.90;;;;;;5099124;28;20039;-73
2022/05/03 06:44:13;;;;;;;24.33;18.30;;;17.40;99.90;;;;;;5088841;28;20491;-74
2022/05/03 06:46:42;;;;;;;27.10;19.08;;;17.90;99.90;;;;;;5087962;28;20055;-74
2022/05/03 06:49:10;;;;;;;26.65;17.38;;;18.30;99.90;;;;;;5086362;28;20074;-73
2022/05/03 06:51:37;;;;;;;28.95;18.48;;;18.70;99.90;;;;;;5080397;28;20040;-73
2022/05/03 06:54:05;;;;;;;29.80;19.23;;;18.70;99.90;;;;;;5079221;28;20047;-74
2022/05/03 06:56:35;;;;;;;26.77;17.20;;;19.10;99.90;;;;;;5078963;28;20468;-74
2022/05/03 06:59:03;;;;;;;26.30;16.38;;;19.20;99.90;;;;;;5079192;28;20454;-74
2022/05/03 07:01:31;;;;;;;27.70;19.02;;;19.20;98.20;;;;;;5079272;28;20044;-74
2022/05/03 07:04:00;;;;;;;31.88;21.48;;;19.00;97.50;;;;;;5078122;28;20131;-74
2022/05/03 07:06:28;;;;;;;31.17;17.92;;;18.60;98.60;;;;;;5044620;28;20052;-75
2022/05/03 07:08:55;;;;;;;31.05;19.27;;;18.50;97.20;;;;;;5062252;28;20080;-74
2022/05/03 07:11:22;;;;;;;28.92;16.65;;;18.70;96.90;;;;;;5079336;28;20052;-74
2022/05/03 07:13:50;;;;;;;29.67;17.48;;;18.90;95.80;;;;;;5079522;28;20052;-75
2022/05/03 07:16:17;;;;;;;23.23;16.85;;;19.40;94.40;;;;;;5076191;28;20115;-73
2022/05/03 07:24:16;;;;;;;28.15;16.63;;;19.20;92.50;;;;;;5099324;28;20040;-74
2022/05/03 07:26:43;;;;;;;30.52;16.23;;;18.90;92.40;;;;;;5096456;28;20379;-73
2022/05/03 07:29:11;;;;;;;33.00;18.38;;;19.20;91.70;;;;;;5084254;28;20047;-75
2022/05/03 07:31:41;;;;;;;29.33;20.17;;;19.40;91.30;;;;;;5056976;28;20051;-74
2022/05/03 07:34:09;;;;;;;27.38;17.88;;;19.50;90.30;;;;;;5076888;28;20051;-73
2022/05/03 07:36:42;;;;;;;27.10;18.90;;;19.50;88.70;;;;;;5081465;28;20032;-73
2022/05/03 07:39:10;;;;;;;27.38;18.42;;;19.40;88.80;;;;;;5085803;28;20048;-74
2022/05/03 07:41:38;;;;;;;28.02;17.17;;;19.50;88.70;;;;;;5059940;28;20434;-75
2022/05/03 07:44:05;;;;;;;24.65;16.80;;;19.50;87.60;;;;;;5089912;28;20048;-74
2022/05/03 07:46:33;;;;;;;31.20;16.63;;;19.50;87.60;;;;;;5079596;28;20032;-75
2022/05/03 07:49:00;;;;;;;27.30;15.82;;;19.70;88.20;;;;;;5081443;28;20112;-73
2022/05/03 07:51:29;;;;;;;26.45;15.23;;;19.70;87.00;;;;;;5080557;28;20062;-75
2022/05/03 07:53:58;;;;;;;23.55;13.68;;;19.70;86.50;;;;;;5084320;28;20068;-73
2022/05/03 07:56:25;;;;;;;22.23;13.40;;;19.60;85.20;;;;;;5088536;28;20040;-74
2022/05/03 07:58:53;;;;;;;26.30;15.98;;;19.70;84.10;;;;;;5092092;28;20046;-73
2022/05/03 08:01:20;;;;;;;27.73;17.50;;;19.90;85.00;;;;;;5092104;28;20071;-73
2022/05/03 08:03:47;;;;;;;20.00;12.98;;;20.00;84.40;;;;;;5078903;28;20047;-74
2022/05/03 08:06:15;;;;;;;23.38;13.75;;;20.10;81.70;;;;;;5056991;28;20075;-73
2022/05/03 08:08:42;;;;;;;26.33;13.85;;;20.30;81.80;;;;;;5087131;28;20039;-73
2022/05/03 08:11:11;;;;;;;25.60;17.00;;;20.20;81.50;;;;;;5064331;28;20057;-74
2022/05/03 08:13:39;;;;;;;29.65;17.92;;;20.20;83.40;;;;;;5054563;28;20048;-74
2022/05/03 08:16:17;;;;;;;23.05;16.52;;;20.20;83.60;;;;;;5059692;28;20361;-74
2022/05/03 08:18:45;;;;;;;20.75;15.63;;;20.30;81.80;;;;;;5073986;28;20044;-74
2022/05/03 08:21:13;;;;;;;33.88;20.90;;;20.20;82.40;;;;;;5055072;28;20044;-73
2022/05/03 08:23:40;;;;;;;26.38;16.58;;;20.30;82.70;;;;;;5066760;28;20044;-74
2022/05/03 08:26:07;;;;;;;20.95;13.80;;;20.60;82.30;;;;;;5074306;28;20391;-73
2022/05/03 08:28:36;;;;;;;20.13;12.48;;;20.30;80.50;;;;;;5074431;28;20028;-73
2022/05/03 08:31:04;;;;;;;23.13;14.02;;;20.10;80.90;;;;;;5074937;28;20040;-74
2022/05/03 08:33:31;;;;;;;21.02;12.23;;;20.30;80.80;;;;;;5073784;28;20075;-73
2022/05/03 08:35:59;;;;;;;22.42;12.52;;;20.50;80.30;;;;;;5074384;28;20045;-74
2022/05/03 08:43:59;;;;;;;22.75;11.65;;;20.60;78.50;;;;;;5076174;28;20037;-74
2022/05/03 08:46:27;;;;;;;18.85;12.20;;;20.60;79.30;;;;;;5073821;28;20067;-73
2022/05/03 08:48:57;;;;;;;23.83;13.32;;;20.60;79.60;;;;;;5041483;28;20492;-73
2022/05/03 08:51:25;;;;;;;22.85;15.02;;;20.60;79.40;;;;;;5071488;28;20033;-73
2022/05/03 08:53:52;;;;;;;26.30;17.35;;;20.40;80.70;;;;;;5073224;28;20067;-73
2022/05/03 08:56:20;;;;;;;21.30;16.08;;;20.50;81.50;;;;;;5075063;28;20040;-73
2022/05/03 08:58:48;;;;;;;27.20;14.07;;;20.70;81.00;;;;;;5079351;28;20041;-74
2022/05/03 09:01:17;;;;;;;24.23;17.90;;;20.70;80.50;;;;;;5074393;28;20039;-73
2022/05/03 09:03:44;;;;;;;24.20;15.88;;;20.70;81.20;;;;;;5058700;28;20060;-73
2022/05/03 09:06:12;;;;;;;24.27;17.00;;;20.70;81.60;;;;;;5078525;28;20045;-75
2022/05/03 09:08:40;;;;;;;30.55;18.17;;;20.60;82.30;;;;;;5060575;28;20044;-74
2022/05/03 09:11:15;;;;;;;27.38;17.42;;;20.70;83.00;;;;;;5078386;28;20119;-75
2022/05/03 09:13:43;;;;;;;22.95;14.18;;;20.80;81.90;;;;;;5075835;28;20053;-73
2022/05/03 09:16:13;;;;;;;23.67;15.13;;;20.90;81.10;;;;;;5077993;28;20111;-74
2022/05/03 09:18:42;;;;;;;24.33;14.63;;;21.20;80.40;;;;;;5077549;28;20147;-73
2022/05/03 09:24:10;;;;;;;25.30;16.33;;;21.00;79.60;;;;;;5068690;28;20056;-74
2022/05/03 09:26:39;;;;;;;25.60;15.70;;;20.60;80.90;;;;;;5065930;28;20056;-74
2022/05/03 09:29:18;;;;;;;24.73;15.30;;;20.50;81.70;;;;;;5073392;28;20510;-74
2022/05/03 09:31:48;;;;;;;22.65;15.48;;;20.90;81.60;;;;;;5062576;28;20123;-74
2022/05/03 09:34:23;;;;;;;20.95;14.27;;;21.40;79.70;;;;;;5076774;28;20033;-75
2022/05/03 09:36:52;;;;;;;22.33;15.02;;;21.40;77.80;;;;;;5076511;28;20047;-73
2022/05/03 09:39:23;;;;;;;20.58;14.45;;;21.30;77.20;;;;;;5059037;28;20048;-74
2022/05/03 09:42:11;;;;;;;27.52;15.25;;;21.10;77.30;;;;;;5076622;28;20055;-74
2022/05/03 09:44:52;;;;;;;19.98;13.25;;;21.00;78.90;;;;;;5075900;28;20044;-74
2022/05/03 09:47:21;;;;;;;18.60;13.57;;;20.90;76.80;;;;;;5074474;28;20059;-74
2022/05/03 09:49:49;;;;;;;20.42;12.80;;;20.40;77.60;;;;;;5076431;28;20037;-73
2022/05/03 09:52:27;;;;;;;15.75;9.43;;;20.40;77.00;;;;;;5075777;28;20487;-75
2022/05/03 09:54:59;;;;;;;16.67;11.98;;;20.20;73.60;;;;;;5071639;28;20167;-73
2022/05/03 09:57:31;;;;;;;17.92;10.80;;;19.90;75.60;;;;;;5075593;28;20049;-72
2022/05/03 10:00:00;;;;;;;13.80;9.30;;;20.00;75.30;;;;;;5077319;28;20474;-74
2022/05/03 10:02:30;;;;;;;17.95;9.73;;;20.10;74.20;;;;;;5057862;28;20050;-74
2022/05/03 10:05:00;;;;;;;15.48;9.90;;;20.30;74.50;;;;;;5078476;28;20090;-74
2022/05/03 10:07:29;;;;;;;15.35;9.93;;;20.70;73.60;;;;;;5076724;28;20040;-73
2022/05/03 10:09:56;;;;;;;17.35;10.38;;;20.90;73.10;;;;;;5059531;28;20048;-74
2022/05/03 10:12:24;;;;;;;14.57;9.75;;;21.00;73.40;;;;;;5079221;28;20051;-75
2022/05/03 10:14:51;;;;;;;17.65;9.85;;;20.90;74.20;;;;;;5078024;28;20040;-74
2022/05/03 10:20:39;;;;;;;14.90;10.90;;;20.60;74.10;;;;;;5079012;28;20456;-74
2022/05/03 10:23:20;;;;;;;15.85;10.38;;;20.20;74.70;;;;;;5076792;28;20044;-74
2022/05/03 10:25:55;;;;;;;10.65;7.47;;;20.20;75.40;;;;;;5076442;28;20050;-74
2022/05/03 10:28:23;;;;;;;12.00;7.53;;;20.00;76.30;;;;;;5075947;28;20069;-74
2022/05/03 10:31:21;;;;;;;12.30;7.65;;;19.90;76.90;;;;;;5076105;28;20041;-73
2022/05/03 10:33:49;;;;;;;14.23;8.00;;;19.90;77.00;;;;;;5014664;28;20045;-74
2022/05/03 10:36:44;;;;;;;13.48;7.05;;;20.00;75.60;;;;;;5076618;28;20052;-74
2022/05/03 10:39:22;;;;;;;13.57;7.70;;;20.20;75.00;;;;;;5078828;28;20060;-75
2022/05/03 10:42:01;;;;;;;13.00;7.13;;;20.20;75.80;;;;;;5081408;28;20079;-74
2022/05/03 10:44:47;;;;;;;8.70;5.35;;;19.80;76.40;;;;;;5101119;28;20068;-74
2022/05/03 10:47:19;;;;;;;8.70;7.03;;;19.90;75.50;;;;;;5099581;28;20074;-73
2022/05/03 10:50:26;;;;;;;13.73;7.25;;;19.80;76.00;;;;;;5098006;28;20394;-72
2022/05/03 10:53:27;;;;;;;12.13;5.75;;;19.70;77.10;;;;;;5096955;28;20040;-73
2022/05/03 10:56:16;;;;;;;10.80;5.78;;;19.60;77.50;;;;;;5095949;28;20075;-74
2022/05/03 10:58:46;;;;;;;9.77;5.00;;;19.90;76.40;;;;;;5095922;28;20040;-73
2022/05/03 11:01:18;;;;;;;9.57;4.93;;;20.10;76.60;;;;;;5096090;28;20067;-73
2022/05/03 11:04:09;;;;;;;13.80;6.10;;;20.10;75.30;;;;;;5095609;28;20119;-74
2022/05/03 11:06:44;;;;;;;10.45;6.07;;;20.10;75.40;;;;;;5095772;28;20055;-74
2022/05/03 11:09:15;;;;;;;14.10;6.20;;;20.20;76.20;;;;;;5095665;28;20081;-74
2022/05/03 11:11:53;;;;;;;11.48;6.50;;;20.50;75.60;;;;;;5095888;28;20043;-74
2022/05/03 11:14:49;;;;;;;9.95;5.70;;;20.60;72.60;;;;;;5050615;22;20393;-71
2022/05/03 11:17:19;;;;;;;10.30;5.68;;;20.50;72.90;;;;;;5033343;28;20488;-71
2022/05/03 11:19:58;;;;;;;11.10;6.15;;;20.50;73.50;;;;;;5035364;28;20128;-72
2022/05/03 11:22:32;;;;;;;6.38;4.00;;;20.60;69.00;;;;;;5035418;28;20455;-73
2022/05/03 11:25:06;;;;;;;9.77;4.20;;;20.60;66.80;;;;;;5035606;28;20045;-72
2022/05/03 11:27:34;;;;;;;10.25;4.90;;;20.60;66.20;;;;;;5036210;28;20049;-73
2022/05/03 11:30:04;;;;;;;10.95;6.82;;;20.50;67.60;;;;;;5035253;28;20038;-73
2022/05/03 11:32:34;;;;;;;12.32;7.93;;;20.50;70.30;;;;;;5034896;28;20072;-72
2022/05/03 11:35:03;;;;;;;9.90;5.43;;;20.60;69.60;;;;;;5020912;28;20133;-72
2022/05/03 11:37:31;;;;;;;12.30;7.13;;;20.70;68.10;;;;;;5015014;28;20041;-71
2022/05/03 11:40:05;;;;;;;12.98;8.15;;;21.00;69.00;;;;;;5014596;28;20396;-72
2022/05/03 11:42:38;;;;;;;18.42;10.18;;;21.10;67.60;;;;;;5012983;28;20221;-73
2022/05/03 11:45:07;;;;;;;10.60;5.78;;;21.10;63.90;;;;;;5023516;28;20073;-74
2022/05/03 11:47:37;;;;;;;7.03;4.47;;;21.20;62.70;;;;;;5017461;28;20437;-72
2022/05/03 11:50:06;;;;;;;8.98;3.60;;;21.40;62.90;;;;;;5015267;28;20481;-71
2022/05/03 11:58:03;;;;;;;7.20;3.75;;;21.50;62.30;;;;;;5015193;28;20416;-72
2022/05/03 12:00:31;;;;;;;5.75;3.08;;;21.70;61.10;;;;;;5014741;28;20038;-73
2022/05/03 12:03:01;;;;;;;11.60;6.47;;;21.90;59.70;;;;;;5014897;28;20038;-72
2022/05/03 12:05:29;;;;;;;6.75;3.67;;;22.20;59.80;;;;;;5013317;28;20065;-72
2022/05/03 12:07:57;;;;;;;7.22;4.55;;;21.90;60.20;;;;;;5014768;28;20389;-73
2022/05/03 12:10:28;;;;;;;4.20;3.00;;;21.40;60.80;;;;;;5015051;28;20038;-72
2022/05/03 12:13:12;;;;;;;6.65;3.13;;;21.20;60.90;;;;;;5024174;28;20107;-72
2022/05/03 12:15:41;;;;;;;6.30;3.65;;;21.40;62.10;;;;;;5048825;28;20060;-74
2022/05/03 12:18:15;;;;;;;6.45;3.45;;;21.20;61.40;;;;;;5055934;28;20044;-73
2022/05/03 12:20:46;;;;;;;5.18;3.28;;;21.20;62.70;;;;;;5054802;28;20071;-72
2022/05/03 12:23:19;;;;;;;7.85;3.00;;;21.10;62.90;;;;;;5054594;28;20068;-73
2022/05/03 12:25:49;;;;;;;7.13;3.30;;;21.00;64.30;;;;;;5053378;28;20107;-72
2022/05/03 12:28:18;;;;;;;6.35;3.22;;;20.90;64.00;;;;;;5055027;28;20041;-73
2022/05/03 12:30:46;;;;;;;7.93;3.10;;;20.70;63.40;;;;;;5054655;28;20068;-72
2022/05/03 12:33:15;;;;;;;8.48;3.95;;;21.00;63.60;;;;;;5054540;28;20047;-73
2022/05/03 12:35:44;;;;;;;6.00;3.50;;;21.30;62.70;;;;;;5034610;28;20056;-72
2022/05/03 12:38:13;;;;;;;11.18;5.07;;;21.30;64.30;;;;;;5033906;28;20118;-72
2022/05/03 12:40:47;;;;;;;6.88;3.03;;;21.40;64.30;;;;;;5046818;28;20041;-72
2022/05/03 12:43:17;;;;;;;7.15;3.38;;;21.20;62.50;;;;;;5063258;28;20098;-73
2022/05/03 12:45:57;;;;;;;8.25;3.17;;;21.20;63.30;;;;;;5072326;28;20049;-72
2022/05/03 12:48:25;;;;;;;8.90;4.55;;;21.10;63.90;;;;;;5072153;28;20507;-72
2022/05/03 12:50:53;;;;;;;10.40;3.60;;;21.10;64.10;;;;;;5074339;28;20040;-72
2022/05/03 12:53:25;;;;;;;7.63;3.40;;;21.30;64.10;;;;;;5073866;28;20414;-73
2022/05/03 12:55:55;;;;;;;9.77;3.67;;;21.30;65.00;;;;;;5077956;28;20045;-72
2022/05/03 12:58:22;;;;;;;10.18;6.03;;;21.20;66.40;;;;;;5086110;28;20079;-72
2022/05/03 13:00:49;;;;;;;7.55;4.00;;;21.00;66.90;;;;;;5093140;28;20048;-72
2022/05/03 13:03:17;;;;;;;6.93;3.97;;;20.80;65.90;;;;;;5093571;28;20112;-72
2022/05/03 13:05:45;;;;;;;7.65;3.38;;;20.80;67.70;;;;;;5093418;28;20048;-71
2022/05/03 13:08:13;;;;;;;6.95;4.00;;;20.70;68.40;;;;;;5074695;28;20045;-72
2022/05/03 13:10:40;;;;;;;7.63;3.83;;;20.30;70.50;;;;;;5074015;28;20495;-72
2022/05/03 13:13:10;;;;;;;6.72;3.88;;;20.30;71.30;;;;;;5073254;28;20053;-72
2022/05/03 13:15:38;;;;;;;4.57;3.28;;;20.20;70.90;;;;;;5055693;28;20499;-70
2022/05/03 13:18:06;;;;;;;5.45;2.78;;;20.20;64.60;;;;;;5053579;28;20060;-72
2022/05/03 13:20:34;;;;;;;7.03;3.13;;;20.00;64.10;;;;;;5051976;28;20411;-72
2022/05/03 13:23:01;;;;;;;5.93;3.25;;;20.00;65.90;;;;;;5053464;28;20045;-72
2022/05/03 13:25:29;;;;;;;6.05;3.67;;;20.10;66.10;;;;;;5053520;28;20124;-72
2022/05/03 13:27:57;;;;;;;4.45;3.28;;;19.90;65.50;;;;;;5053531;28;20041;-71
2022/05/03 13:30:26;;;;;;;5.35;3.55;;;19.70;65.50;;;;;;5052727;28;20045;-73
2022/05/03 13:32:54;;;;;;;6.15;3.20;;;19.90;65.30;;;;;;5053888;28;20063;-73